sensor_id;sensor_type;location;lat;lon;timestamp;pressure;altitude;pressure_sealevel;temperature;humidity
58771;BME280;44539;42.962;1.596;2023-01-26T07:06:50;97357.44;;;-0.14;100.00
58771;BME280;44539;42.962;1.596;2023-01-26T07:09:15;97349.72;;;-0.03;100.00
58771;BME280;44539;42.962;1.596;2023-01-26T07:11:41;97349.59;;;-0.02;100.00
58771;BME280;44539;42.962;1.596;2023-01-26T07:14:06;97354.28;;;0.06;100.00
58771;BME280;44539;42.962;1.596;2023-01-26T07:16:32;97358.50;;;0.09;100.00
58771;BME280;44539;42.962;1.596;2023-01-26T07:18:57;97356.63;;;0.11;100.00
58771;BME280;44539;42.962;1.596;2023-01-26T07:21:23;97356.50;;;0.12;100.00
58771;BME280;44539;42.962;1.596;2023-01-26T07:23:49;97354.59;;;0.14;100.00
58771;BME280;44539;42.962;1.596;2023-01-26T07:26:15;97354.59;;;0.14;100.00
58771;BME280;44539;42.962;1.596;2023-01-26T07:28:41;97364.84;;;0.17;100.00
58771;BME280;44539;42.962;1.596;2023-01-26T07:31:07;97364.72;;;0.06;100.00
58771;BME280;44539;42.962;1.596;2023-01-26T07:33:33;97367.97;;;0.10;100.00
58771;BME280;44539;42.962;1.596;2023-01-26T07:35:59;97358.28;;;0.12;100.00
58771;BME280;44539;42.962;1.596;2023-01-26T07:38:25;97362.56;;;0.00;100.00
58771;BME280;44539;42.962;1.596;2023-01-26T07:40:51;97361.09;;;-0.04;100.00
58771;BME280;44539;42.962;1.596;2023-01-26T07:43:16;97361.94;;;-0.04;100.00
58771;BME280;44539;42.962;1.596;2023-01-26T07:45:49;97356.91;;;0.06;100.00
58771;BME280;44539;42.962;1.596;2023-01-26T07:48:16;97346.78;;;0.02;100.00
58771;BME280;44539;42.962;1.596;2023-01-26T07:50:43;97354.19;;;0.08;100.00
58771;BME280;44539;42.962;1.596;2023-01-26T07:53:10;97356.72;;;0.09;100.00
58771;BME280;44539;42.962;1.596;2023-01-26T07:55:37;97356.91;;;0.06;100.00
58771;BME280;44539;42.962;1.596;2023-01-26T07:58:02;97354.00;;;0.11;100.00
58771;BME280;44539;42.962;1.596;2023-01-26T08:00:28;97347.09;;;0.10;100.00
58771;BME280;44539;42.962;1.596;2023-01-26T08:02:53;97358.38;;;0.10;100.00
58771;BME280;44539;42.962;1.596;2023-01-26T08:05:19;97349.38;;;0.14;100.00
58771;BME280;44539;42.962;1.596;2023-01-26T08:07:44;97353.25;;;0.22;100.00
58771;BME280;44539;42.962;1.596;2023-01-26T08:10:10;97349.78;;;0.21;100.00
58771;BME280;44539;42.962;1.596;2023-01-26T08:12:36;97352.72;;;0.29;100.00
58771;BME280;44539;42.962;1.596;2023-01-26T08:15:02;97344.78;;;0.31;100.00
58771;BME280;44539;42.962;1.596;2023-01-26T08:17:29;97355.00;;;0.34;100.00
58771;BME280;44539;42.962;1.596;2023-01-26T08:19:54;97353.25;;;0.34;100.00
58771;BME280;44539;42.962;1.596;2023-01-26T08:22:19;97351.25;;;0.38;100.00
58771;BME280;44539;42.962;1.596;2023-01-26T08:24:45;97353.66;;;0.41;100.00
58771;BME280;44539;42.962;1.596;2023-01-26T08:27:10;97360.22;;;0.47;100.00
58771;BME280;44539;42.962;1.596;2023-01-26T08:29:36;97355.84;;;0.47;100.00
58771;BME280;44539;42.962;1.596;2023-01-26T08:32:01;97360.84;;;0.50;100.00
58771;BME280;44539;42.962;1.596;2023-01-26T08:34:27;97358.47;;;0.47;100.00
58771;BME280;44539;42.962;1.596;2023-01-26T08:36:52;97362.09;;;0.45;100.00
58771;BME280;44539;42.962;1.596;2023-01-26T08:39:18;97364.41;;;0.49;100.00
58771;BME280;44539;42.962;1.596;2023-01-26T08:41:44;97355.84;;;0.47;100.00
58771;BME280;44539;42.962;1.596;2023-01-26T08:44:10;97358.22;;;0.50;100.00
58771;BME280;44539;42.962;1.596;2023-01-26T08:46:35;97357.81;;;0.56;100.00
58771;BME280;44539;42.962;1.596;2023-01-26T08:49:01;97359.69;;;0.54;100.00
58771;BME280;44539;42.962;1.596;2023-01-26T08:51:26;97352.78;;;0.53;100.00
58771;BME280;44539;42.962;1.596;2023-01-26T08:53:52;97357.16;;;0.53;100.00
58771;BME280;44539;42.962;1.596;2023-01-26T08:56:19;97353.50;;;0.55;100.00
58771;BME280;44539;42.962;1.596;2023-01-26T08:58:44;97352.25;;;0.61;100.00
58771;BME280;44539;42.962;1.596;2023-01-26T09:01:12;97353.69;;;0.65;100.00
58771;BME280;44539;42.962;1.596;2023-01-26T09:03:38;97354.53;;;0.66;100.00
58771;BME280;44539;42.962;1.596;2023-01-26T09:06:04;97352.53;;;0.69;100.00
58771;BME280;44539;42.962;1.596;2023-01-26T09:08:30;97356.81;;;0.70;100.00
58771;BME280;44539;42.962;1.596;2023-01-26T09:10:56;97355.34;;;0.66;100.00
58771;BME280;44539;42.962;1.596;2023-01-26T09:13:22;97358.50;;;0.71;100.00
58771;BME280;44539;42.962;1.596;2023-01-26T09:15:48;97355.44;;;0.77;100.00
58771;BME280;44539;42.962;1.596;2023-01-26T09:18:13;97355.22;;;0.80;100.00
58771;BME280;44539;42.962;1.596;2023-01-26T09:20:39;97359.53;;;0.81;100.00
58771;BME280;44539;42.962;1.596;2023-01-26T09:23:05;97359.91;;;0.88;100.00
58771;BME280;44539;42.962;1.596;2023-01-26T09:25:30;97351.09;;;0.89;100.00
58771;BME280;44539;42.962;1.596;2023-01-26T09:27:56;97359.28;;;0.85;97.67
58771;BME280;44539;42.962;1.596;2023-01-26T09:30:22;97356.56;;;0.86;98.06
58771;BME280;44539;42.962;1.596;2023-01-26T09:32:49;97356.97;;;0.93;100.00
58771;BME280;44539;42.962;1.596;2023-01-26T09:35:15;97351.63;;;0.94;100.00
58771;BME280;44539;42.962;1.596;2023-01-26T09:37:42;97353.19;;;0.97;100.00
58771;BME280;44539;42.962;1.596;2023-01-26T09:43:06;97346.91;;;0.99;100.00
58771;BME280;44539;42.962;1.596;2023-01-26T09:54:03;97348.00;;;1.08;100.00
58771;BME280;44539;42.962;1.596;2023-01-26T09:56:30;97346.34;;;1.07;99.47
58771;BME280;44539;42.962;1.596;2023-01-26T09:59:11;97346.69;;;1.02;96.46
58771;BME280;44539;42.962;1.596;2023-01-26T10:01:52;97341.56;;;1.01;96.07
58771;BME280;44539;42.962;1.596;2023-01-26T10:06:55;97351.28;;;0.99;95.60
58771;BME280;44539;42.962;1.596;2023-01-26T10:09:25;97347.28;;;1.06;94.95
58771;BME280;44539;42.962;1.596;2023-01-26T10:11:57;97353.03;;;1.11;94.90
58771;BME280;44539;42.962;1.596;2023-01-26T10:14:44;97342.22;;;1.16;97.09
58771;BME280;44539;42.962;1.596;2023-01-26T10:17:34;97352.59;;;1.17;94.51
58771;BME280;44539;42.962;1.596;2023-01-26T10:25:36;97352.41;;;1.08;98.10
58771;BME280;44539;42.962;1.596;2023-01-26T10:28:13;97339.34;;;1.08;98.33
58771;BME280;44539;42.962;1.596;2023-01-26T10:30:40;97329.69;;;1.08;97.29
58771;BME280;44539;42.962;1.596;2023-01-26T10:33:28;97340.16;;;1.08;98.41
58771;BME280;44539;42.962;1.596;2023-01-26T10:35:54;97330.53;;;1.09;97.59
58771;BME280;44539;42.962;1.596;2023-01-26T10:41:03;97329.09;;;1.05;100.00
58771;BME280;44539;42.962;1.596;2023-01-26T10:43:36;97324.25;;;1.11;100.00
58771;BME280;44539;42.962;1.596;2023-01-26T10:46:02;97325.09;;;1.12;100.00
58771;BME280;44539;42.962;1.596;2023-01-26T10:48:28;97319.84;;;1.12;100.00
58771;BME280;44539;42.962;1.596;2023-01-26T10:50:54;97324.03;;;1.14;100.00
58771;BME280;44539;42.962;1.596;2023-01-26T10:53:37;97323.09;;;1.15;100.00
58771;BME280;44539;42.962;1.596;2023-01-26T10:56:08;97320.56;;;1.14;100.00
58771;BME280;44539;42.962;1.596;2023-01-26T10:59:01;97313.94;;;1.21;100.00
58771;BME280;44539;42.962;1.596;2023-01-26T11:01:27;97312.72;;;1.14;100.00
58771;BME280;44539;42.962;1.596;2023-01-26T11:04:00;97302.03;;;1.17;100.00
58771;BME280;44539;42.962;1.596;2023-01-26T11:06:28;97300.81;;;1.10;100.00
58771;BME280;44539;42.962;1.596;2023-01-26T11:09:14;97302.22;;;1.02;100.00
58771;BME280;44539;42.962;1.596;2023-01-26T11:11:54;97287.47;;;1.01;100.00
58771;BME280;44539;42.962;1.596;2023-01-26T11:14:19;97280.78;;;0.97;100.00
58771;BME280;44539;42.962;1.596;2023-01-26T11:22:10;97272.50;;;1.04;100.00
58771;BME280;44539;42.962;1.596;2023-01-26T11:27:16;97252.69;;;1.23;100.00
58771;BME280;44539;42.962;1.596;2023-01-26T11:35:41;97233.34;;;1.37;100.00
58771;BME280;44539;42.962;1.596;2023-01-26T11:49:30;97211.91;;;1.32;100.00
58771;BME280;44539;42.962;1.596;2023-01-26T11:51:47;97199.06;;;1.29;100.00
58771;BME280;44539;42.962;1.596;2023-01-26T11:59:16;97193.50;;;1.34;100.00
58771;BME280;44539;42.962;1.596;2023-01-26T12:04:19;97193.13;;;1.38;100.00
58771;BME280;44539;42.962;1.596;2023-01-26T12:06:49;97187.06;;;1.38;100.00
58771;BME280;44539;42.962;1.596;2023-01-26T12:14:58;97188.38;;;1.32;100.00
58771;BME280;44539;42.962;1.596;2023-01-26T12:22:51;97177.22;;;1.41;100.00
58771;BME280;44539;42.962;1.596;2023-01-26T12:25:31;97169.59;;;1.38;100.00
58771;BME280;44539;42.962;1.596;2023-01-26T12:28:18;97176.16;;;1.44;100.00
58771;BME280;44539;42.962;1.596;2023-01-26T12:33:27;97169.38;;;1.30;100.00
58771;BME280;44539;42.962;1.596;2023-01-26T12:44:15;97158.75;;;1.20;100.00
58771;BME280;44539;42.962;1.596;2023-01-26T12:46:51;97156.38;;;1.29;100.00
58771;BME280;44539;42.962;1.596;2023-01-26T12:49:31;97154.59;;;1.40;100.00
58771;BME280;44539;42.962;1.596;2023-01-26T12:52:09;97158.19;;;1.28;100.00
58771;BME280;44539;42.962;1.596;2023-01-26T12:54:49;97150.53;;;1.25;100.00
58771;BME280;44539;42.962;1.596;2023-01-26T12:57:21;97148.91;;;1.24;100.00
58771;BME280;44539;42.962;1.596;2023-01-26T12:59:49;97153.88;;;1.27;100.00
58771;BME280;44539;42.962;1.596;2023-01-26T13:04:42;97144.00;;;1.19;100.00
58771;BME280;44539;42.962;1.596;2023-01-26T13:07:34;97145.81;;;1.30;100.00
58771;BME280;44539;42.962;1.596;2023-01-26T13:12:51;97147.09;;;1.13;100.00
58771;BME280;44539;42.962;1.596;2023-01-26T13:15:21;97143.63;;;1.13;100.00
58771;BME280;44539;42.962;1.596;2023-01-26T13:31:54;97131.88;;;1.07;100.00
58771;BME280;44539;42.962;1.596;2023-01-26T13:34:25;97137.69;;;1.11;100.00
58771;BME280;44539;42.962;1.596;2023-01-26T13:36:55;97136.13;;;1.19;100.00
58771;BME280;44539;42.962;1.596;2023-01-26T13:39:45;97134.13;;;1.23;100.00
58771;BME280;44539;42.962;1.596;2023-01-26T13:42:22;97133.78;;;1.28;100.00
58771;BME280;44539;42.962;1.596;2023-01-26T13:44:57;97134.50;;;1.30;100.00
58771;BME280;44539;42.962;1.596;2023-01-26T13:47:38;97136.88;;;1.33;100.00
58771;BME280;44539;42.962;1.596;2023-01-26T13:50:28;97138.41;;;1.13;100.00
58771;BME280;44539;42.962;1.596;2023-01-26T13:52:54;97135.09;;;1.22;100.00
58771;BME280;44539;42.962;1.596;2023-01-26T13:55:26;97143.16;;;1.19;100.00
58771;BME280;44539;42.962;1.596;2023-01-26T13:58:14;97150.13;;;0.96;100.00
58771;BME280;44539;42.962;1.596;2023-01-26T14:00:41;97146.00;;;1.05;100.00
58771;BME280;44539;42.962;1.596;2023-01-26T14:03:22;97139.09;;;0.92;100.00
58771;BME280;44539;42.962;1.596;2023-01-26T14:05:53;97146.09;;;0.92;100.00
58771;BME280;44539;42.962;1.596;2023-01-26T14:08:19;97142.69;;;1.02;100.00
58771;BME280;44539;42.962;1.596;2023-01-26T14:10:47;97150.63;;;1.01;100.00
58771;BME280;44539;42.962;1.596;2023-01-26T14:13:19;97143.41;;;1.05;100.00
58771;BME280;44539;42.962;1.596;2023-01-26T14:15:54;97153.59;;;0.96;100.00
58771;BME280;44539;42.962;1.596;2023-01-26T14:18:20;97149.09;;;0.98;100.00
58771;BME280;44539;42.962;1.596;2023-01-26T14:20:46;97150.28;;;1.06;100.00
58771;BME280;44539;42.962;1.596;2023-01-26T14:23:18;97152.28;;;1.02;100.00
58771;BME280;44539;42.962;1.596;2023-01-26T14:28:15;97149.31;;;1.07;100.00
58771;BME280;44539;42.962;1.596;2023-01-26T14:30:41;97163.00;;;0.99;100.00
58771;BME280;44539;42.962;1.596;2023-01-26T14:33:14;97157.16;;;1.07;100.00
58771;BME280;44539;42.962;1.596;2023-01-26T14:35:42;97161.66;;;0.93;100.00
58771;BME280;44539;42.962;1.596;2023-01-26T14:40:43;97158.69;;;0.87;100.00
58771;BME280;44539;42.962;1.596;2023-01-26T14:43:10;97165.06;;;0.82;100.00
58771;BME280;44539;42.962;1.596;2023-01-26T14:45:43;97169.75;;;0.90;100.00
58771;BME280;44539;42.962;1.596;2023-01-26T14:48:12;97160.47;;;0.86;100.00
58771;BME280;44539;42.962;1.596;2023-01-26T14:50:40;97159.41;;;0.89;100.00
58771;BME280;44539;42.962;1.596;2023-01-26T14:53:20;97167.31;;;0.76;100.00
58771;BME280;44539;42.962;1.596;2023-01-26T14:55:47;97170.19;;;0.84;100.00
58771;BME280;44539;42.962;1.596;2023-01-26T14:58:18;97163.88;;;0.75;100.00
58771;BME280;44539;42.962;1.596;2023-01-26T15:00:47;97164.25;;;0.82;100.00
58771;BME280;44539;42.962;1.596;2023-01-26T15:05:48;97153.53;;;0.74;100.00
58771;BME280;44539;42.962;1.596;2023-01-26T15:08:22;97155.94;;;0.77;100.00
58771;BME280;44539;42.962;1.596;2023-01-26T15:10:56;97158.69;;;0.87;100.00
58771;BME280;44539;42.962;1.596;2023-01-26T15:13:43;97157.94;;;0.85;100.00
58771;BME280;44539;42.962;1.596;2023-01-26T15:16:18;97163.78;;;0.77;100.00
58771;BME280;44539;42.962;1.596;2023-01-26T15:18:44;97166.75;;;0.84;100.00
58771;BME280;44539;42.962;1.596;2023-01-26T15:21:18;97162.25;;;0.86;100.00
58771;BME280;44539;42.962;1.596;2023-01-26T15:23:48;97157.03;;;0.86;100.00
58771;BME280;44539;42.962;1.596;2023-01-26T15:28:50;97160.47;;;0.97;100.00
58771;BME280;44539;42.962;1.596;2023-01-26T15:31:33;97160.13;;;0.91;100.00
58771;BME280;44539;42.962;1.596;2023-01-26T15:33:59;97149.66;;;0.91;100.00
58771;BME280;44539;42.962;1.596;2023-01-26T15:39:12;97150.28;;;0.94;100.00
58771;BME280;44539;42.962;1.596;2023-01-26T15:41:39;97151.91;;;0.95;100.00
58771;BME280;44539;42.962;1.596;2023-01-26T15:44:12;97143.84;;;0.98;100.00
58771;BME280;44539;42.962;1.596;2023-01-26T15:46:38;97147.91;;;1.02;100.00
58771;BME280;44539;42.962;1.596;2023-01-26T15:49:04;97142.44;;;1.06;100.00
58771;BME280;44539;42.962;1.596;2023-01-26T15:51:29;97146.22;;;1.01;100.00
58771;BME280;44539;42.962;1.596;2023-01-26T15:53:55;97149.66;;;1.02;100.00
58771;BME280;44539;42.962;1.596;2023-01-26T15:56:20;97145.28;;;1.02;100.00
58771;BME280;44539;42.962;1.596;2023-01-26T15:58:46;97142.31;;;1.07;100.00
58771;BME280;44539;42.962;1.596;2023-01-26T16:01:19;97151.72;;;1.10;100.00
58771;BME280;44539;42.962;1.596;2023-01-26T16:03:45;97143.03;;;1.09;100.00
58771;BME280;44539;42.962;1.596;2023-01-26T16:06:31;97146.38;;;1.11;100.00
58771;BME280;44539;42.962;1.596;2023-01-26T16:08:57;97143.41;;;1.16;100.00
58771;BME280;44539;42.962;1.596;2023-01-26T16:11:28;97132.69;;;1.19;100.00
58771;BME280;44539;42.962;1.596;2023-01-26T16:13:54;97138.63;;;1.10;100.00
58771;BME280;44539;42.962;1.596;2023-01-26T16:16:20;97140.69;;;1.17;100.00
58771;BME280;44539;42.962;1.596;2023-01-26T16:18:45;97143.41;;;1.16;100.00
58771;BME280;44539;42.962;1.596;2023-01-26T16:21:20;97150.19;;;1.07;100.00
58771;BME280;44539;42.962;1.596;2023-01-26T16:23:46;97149.09;;;1.10;100.00
58771;BME280;44539;42.962;1.596;2023-01-26T16:26:13;97149.31;;;1.07;100.00
58771;BME280;44539;42.962;1.596;2023-01-26T16:28:40;97151.94;;;1.07;100.00
58771;BME280;44539;42.962;1.596;2023-01-26T16:31:23;97149.47;;;1.05;100.00
58771;BME280;44539;42.962;1.596;2023-01-26T16:33:49;97154.78;;;1.04;100.00
58771;BME280;44539;42.962;1.596;2023-01-26T16:36:17;97151.34;;;1.03;100.00
58771;BME280;44539;42.962;1.596;2023-01-26T16:38:43;97150.97;;;0.96;100.00
58771;BME280;44539;42.962;1.596;2023-01-26T16:41:25;97154.31;;;0.98;100.00
58771;BME280;44539;42.962;1.596;2023-01-26T16:43:53;97157.03;;;0.97;100.00
58771;BME280;44539;42.962;1.596;2023-01-26T16:46:19;97154.44;;;0.97;100.00
58771;BME280;44539;42.962;1.596;2023-01-26T16:48:44;97163.00;;;0.99;100.00
58771;BME280;44539;42.962;1.596;2023-01-26T16:51:29;97163.59;;;1.02;100.00
58771;BME280;44539;42.962;1.596;2023-01-26T16:53:56;97171.31;;;1.04;100.00
58771;BME280;44539;42.962;1.596;2023-01-26T16:56:23;97183.75;;;0.89;100.00
58771;BME280;44539;42.962;1.596;2023-01-26T16:58:49;97169.84;;;0.89;100.00
58771;BME280;44539;42.962;1.596;2023-01-26T17:01:20;97173.53;;;0.86;100.00
58771;BME280;44539;42.962;1.596;2023-01-26T17:03:45;97172.56;;;0.87;100.00
58771;BME280;44539;42.962;1.596;2023-01-26T17:06:12;97182.31;;;0.85;100.00
58771;BME280;44539;42.962;1.596;2023-01-26T17:08:38;97192.41;;;0.78;100.00
58771;BME280;44539;42.962;1.596;2023-01-26T17:11:04;97186.72;;;0.85;100.00
58771;BME280;44539;42.962;1.596;2023-01-26T17:13:30;97184.72;;;0.88;100.00
58771;BME280;44539;42.962;1.596;2023-01-26T17:15:56;97188.50;;;0.84;100.00
